Time;durP1;ratioP1;P1;durP2;ratioP2;P2;SDS_P1;SDS_P2;PMS_P1;PMS_P2;Temp;Humidity;BMP_temperature;BMP_pressure;BME280_temperature;BME280_humidity;BME280_pressure;Samples;Min_cycle;Max_cycle;Signal;HPM_P1;HPM_P2
2022/11/04 00:01:43;;;;;;;3.05;0.63;;;11.10;99.90;;;;;;5091513;28;20123;-64
2022/11/04 00:04:10;;;;;;;1.80;0.68;;;11.00;99.90;;;;;;5091603;28;20032;-64
2022/11/04 00:06:36;;;;;;;4.30;0.88;;;11.00;99.90;;;;;;5091835;28;20044;-63
2022/11/04 00:09:04;;;;;;;6.95;1.75;;;11.00;99.90;;;;;;5091668;28;20039;-63
2022/11/04 00:14:14;;;;;;;5.18;2.00;;;11.10;99.90;;;;;;5078533;28;20054;-63
2022/11/04 00:19:25;;;;;;;5.00;1.75;;;11.10;99.90;;;;;;5091540;28;20048;-64
2022/11/04 00:30:08;;;;;;;1.02;0.70;;;11.00;99.90;;;;;;5090045;28;20105;-64
2022/11/04 00:35:19;;;;;;;3.22;0.80;;;11.00;99.90;;;;;;5091620;28;20134;-64
2022/11/04 00:37:44;;;;;;;1.90;0.80;;;11.10;99.90;;;;;;5090932;28;20504;-64
2022/11/04 00:40:14;;;;;;;3.45;1.20;;;11.10;99.90;;;;;;5091161;28;20032;-63
2022/11/04 00:42:42;;;;;;;6.25;1.25;;;11.10;99.90;;;;;;5090863;28;20120;-64
2022/11/04 00:45:08;;;;;;;3.03;1.00;;;11.10;99.90;;;;;;5090696;28;20494;-63
2022/11/04 00:47:33;;;;;;;2.58;1.00;;;11.10;99.90;;;;;;5091056;28;20032;-64
2022/11/04 00:49:59;;;;;;;2.35;0.70;;;11.10;99.90;;;;;;5090672;28;20035;-61
2022/11/04 00:52:24;;;;;;;3.25;0.90;;;11.10;99.90;;;;;;5090378;28;20143;-64
2022/11/04 00:54:50;;;;;;;1.42;0.80;;;11.00;99.90;;;;;;5090860;28;20501;-65
2022/11/04 00:57:16;;;;;;;3.20;0.82;;;11.00;99.90;;;;;;5090898;28;20472;-65
2022/11/04 00:59:41;;;;;;;3.03;0.95;;;11.10;99.90;;;;;;5090185;28;20357;-63
2022/11/04 01:02:09;;;;;;;2.38;1.10;;;11.10;99.90;;;;;;5089997;28;20343;-62
2022/11/04 01:04:35;;;;;;;4.10;1.10;;;11.10;99.90;;;;;;5090061;28;20048;-63
2022/11/04 01:07:01;;;;;;;3.08;0.93;;;11.10;99.90;;;;;;5090864;28;20460;-62
2022/11/04 01:09:27;;;;;;;4.43;1.00;;;11.20;99.90;;;;;;5090446;28;20036;-63
2022/11/04 01:11:52;;;;;;;5.05;1.15;;;11.10;99.90;;;;;;5090097;28;20047;-63
2022/11/04 01:14:18;;;;;;;3.00;0.98;;;11.20;99.90;;;;;;5090651;28;20036;-62
2022/11/04 01:16:44;;;;;;;3.53;1.10;;;11.10;99.90;;;;;;5090357;28;20121;-62
2022/11/04 01:19:10;;;;;;;4.43;1.00;;;11.20;99.90;;;;;;5089742;28;20044;-62
2022/11/04 01:21:36;;;;;;;3.80;1.00;;;11.20;99.90;;;;;;5089788;28;20036;-64
2022/11/04 01:24:02;;;;;;;2.85;1.10;;;11.20;99.90;;;;;;5089978;28;20038;-62
2022/11/04 01:26:28;;;;;;;2.88;0.98;;;11.20;99.90;;;;;;5090294;28;20414;-64
2022/11/04 01:28:55;;;;;;;5.75;1.73;;;11.20;99.90;;;;;;5089989;28;20522;-64
2022/11/04 01:31:24;;;;;;;4.28;1.23;;;11.30;99.90;;;;;;5089670;28;20401;-63
2022/11/04 01:33:52;;;;;;;2.38;1.20;;;11.10;99.90;;;;;;5089985;28;20044;-63
2022/11/04 01:36:18;;;;;;;5.63;1.60;;;11.10;99.90;;;;;;5089946;28;20081;-63
2022/11/04 01:38:44;;;;;;;7.15;2.20;;;11.10;99.90;;;;;;5089544;28;20043;-63
2022/11/04 01:41:22;;;;;;;8.27;2.50;;;11.10;99.90;;;;;;5089685;28;20052;-63
2022/11/04 01:44:16;;;;;;;6.75;2.47;;;11.10;99.90;;;;;;5089924;28;20044;-62
2022/11/04 01:46:48;;;;;;;5.65;2.17;;;11.20;99.90;;;;;;5089644;28;20090;-64
2022/11/04 01:49:27;;;;;;;8.27;3.20;;;11.10;99.90;;;;;;5089736;28;20036;-62
2022/11/04 01:52:03;;;;;;;8.07;3.53;;;11.10;99.90;;;;;;5089333;28;20024;-64
2022/11/04 01:54:29;;;;;;;5.38;2.33;;;11.10;99.90;;;;;;5089896;28;20047;-63
2022/11/04 01:56:56;;;;;;;8.73;3.15;;;11.10;99.90;;;;;;5089894;28;20083;-64
2022/11/04 01:59:31;;;;;;;6.80;2.50;;;11.10;99.90;;;;;;5089705;28;20440;-63
2022/11/04 02:01:57;;;;;;;4.93;1.70;;;11.00;99.90;;;;;;5089272;28;20040;-64
2022/11/04 02:04:26;;;;;;;6.78;2.67;;;11.00;99.90;;;;;;5089752;28;20047;-63
2022/11/04 02:06:54;;;;;;;9.35;3.05;;;11.00;99.90;;;;;;5089492;28;20036;-63
2022/11/04 02:09:21;;;;;;;7.43;3.15;;;11.00;99.90;;;;;;5088770;28;20048;-63
2022/11/04 02:14:33;;;;;;;3.03;1.75;;;11.10;99.90;;;;;;5090103;28;20105;-63
2022/11/04 02:17:15;;;;;;;6.57;1.55;;;11.00;99.90;;;;;;5092852;28;20055;-63
2022/11/04 02:20:19;;;;;;;2.75;1.23;;;11.00;99.90;;;;;;5093383;28;20043;-62
2022/11/04 02:22:57;;;;;;;3.30;1.20;;;10.90;99.90;;;;;;5080194;28;20044;-63
2022/11/04 02:25:46;;;;;;;2.08;1.13;;;10.90;99.90;;;;;;5093191;28;20044;-63
2022/11/04 02:28:49;;;;;;;3.58;1.30;;;10.90;99.90;;;;;;5093233;28;20377;-63
2022/11/04 02:31:41;;;;;;;4.43;1.38;;;10.90;99.90;;;;;;5093328;28;20036;-63
2022/11/04 02:34:24;;;;;;;2.33;1.00;;;10.80;99.90;;;;;;5083825;28;20047;-63
2022/11/04 02:37:12;;;;;;;3.45;1.20;;;10.80;99.90;;;;;;5092963;28;20650;-63
2022/11/04 02:39:54;;;;;;;1.77;0.70;;;10.80;99.90;;;;;;5091278;28;20059;-63
2022/11/04 02:42:33;;;;;;;1.63;0.73;;;10.80;99.90;;;;;;5092844;28;20467;-63
2022/11/04 02:45:34;;;;;;;2.80;1.00;;;10.80;99.90;;;;;;5092847;28;20464;-65
2022/11/04 02:48:15;;;;;;;4.20;1.10;;;10.80;99.90;;;;;;5092733;28;20480;-63
2022/11/04 02:50:52;;;;;;;2.63;1.05;;;10.70;99.90;;;;;;5092928;28;20047;-63
2022/11/04 02:53:25;;;;;;;3.35;1.20;;;10.70;99.90;;;;;;5092177;28;20476;-63
2022/11/04 02:55:55;;;;;;;2.40;0.90;;;10.70;99.90;;;;;;5092953;28;20047;-63
2022/11/04 02:58:28;;;;;;;4.22;1.02;;;10.70;99.90;;;;;;5091497;28;20129;-64
2022/11/04 03:00:56;;;;;;;2.42;0.90;;;10.70;99.90;;;;;;5092042;28;20056;-63
2022/11/04 03:03:26;;;;;;;2.08;0.80;;;10.60;99.90;;;;;;5092270;28;20564;-64
2022/11/04 03:05:54;;;;;;;3.13;0.90;;;10.60;99.90;;;;;;5093038;28;20117;-63
2022/11/04 03:08:48;;;;;;;0.93;0.50;;;10.60;99.90;;;;;;5092669;28;20178;-63
2022/11/04 03:11:17;;;;;;;4.15;0.90;;;10.50;99.90;;;;;;5081516;28;20170;-63
2022/11/04 03:13:54;;;;;;;3.28;1.08;;;10.50;99.90;;;;;;5092358;28;20478;-64
2022/11/04 03:16:26;;;;;;;1.98;1.00;;;10.50;99.90;;;;;;5092663;28;20126;-63
2022/11/04 03:19:07;;;;;;;2.97;0.95;;;10.40;99.90;;;;;;5092362;28;20468;-64
2022/11/04 03:21:36;;;;;;;2.28;0.95;;;10.40;99.90;;;;;;5092389;28;20444;-62
2022/11/04 03:24:03;;;;;;;1.92;0.80;;;10.40;99.90;;;;;;5092328;28;20705;-62
2022/11/04 03:26:38;;;;;;;2.15;0.77;;;10.40;99.90;;;;;;5092323;28;20062;-63
2022/11/04 03:29:29;;;;;;;2.80;0.90;;;10.40;99.90;;;;;;5092062;28;20074;-62
2022/11/04 03:31:55;;;;;;;5.13;0.98;;;10.40;99.90;;;;;;5091918;28;20032;-63
2022/11/04 03:34:21;;;;;;;3.53;1.02;;;10.40;99.90;;;;;;5092077;28;20422;-62
2022/11/04 03:36:46;;;;;;;3.83;1.17;;;10.50;99.90;;;;;;5092144;28;20043;-62
2022/11/04 03:39:12;;;;;;;3.42;0.93;;;10.40;99.90;;;;;;5091670;28;20040;-62
2022/11/04 03:41:51;;;;;;;1.65;0.90;;;10.40;99.90;;;;;;5091618;28;20035;-63
2022/11/04 03:44:17;;;;;;;3.53;1.00;;;10.40;99.90;;;;;;5091765;28;20040;-62
2022/11/04 03:46:42;;;;;;;3.13;0.90;;;10.40;99.90;;;;;;5091554;28;20043;-62
2022/11/04 03:49:09;;;;;;;2.55;1.10;;;10.40;99.90;;;;;;5091542;28;20024;-63
2022/11/04 03:51:35;;;;;;;2.38;0.85;;;10.40;99.90;;;;;;5091352;28;20059;-62
2022/11/04 03:54:00;;;;;;;2.92;1.10;;;10.40;99.90;;;;;;5091616;28;20448;-62
2022/11/04 03:56:56;;;;;;;2.35;1.10;;;10.30;99.90;;;;;;5091464;28;20051;-61
2022/11/04 03:59:50;;;;;;;2.22;0.68;;;10.30;99.90;;;;;;5090880;28;20067;-63
2022/11/04 04:02:23;;;;;;;2.88;0.90;;;10.20;99.90;;;;;;5077505;28;20044;-62
2022/11/04 04:04:58;;;;;;;3.53;1.10;;;10.20;99.90;;;;;;5091423;28;20048;-63
2022/11/04 04:07:30;;;;;;;3.58;0.77;;;10.10;99.90;;;;;;5078132;28;20028;-63
2022/11/04 04:10:40;;;;;;;2.20;0.80;;;10.10;99.90;;;;;;5091384;28;20078;-62
2022/11/04 04:13:22;;;;;;;2.08;0.90;;;10.10;99.90;;;;;;5082850;28;20068;-63
2022/11/04 04:15:57;;;;;;;2.63;0.80;;;10.10;99.90;;;;;;5091345;28;20071;-63
2022/11/04 04:18:30;;;;;;;1.60;0.65;;;10.00;99.90;;;;;;5091469;28;20623;-64
2022/11/04 04:21:00;;;;;;;3.83;1.00;;;10.00;99.90;;;;;;5091292;28;20032;-63
2022/11/04 04:29:02;;;;;;;3.03;1.10;;;10.10;99.90;;;;;;5091067;28;20661;-63
2022/11/04 04:34:14;;;;;;;2.03;0.80;;;10.10;99.90;;;;;;5091099;28;20075;-63
2022/11/04 04:36:51;;;;;;;2.05;0.82;;;10.10;99.90;;;;;;5091021;28;20055;-63
2022/11/04 04:45:02;;;;;;;2.53;1.05;;;10.10;99.90;;;;;;5090889;28;20083;-62
2022/11/04 04:47:42;;;;;;;2.03;1.10;;;10.10;99.90;;;;;;5090915;28;20040;-62
2022/11/04 04:50:09;;;;;;;3.38;0.82;;;10.10;99.90;;;;;;5090693;28;20060;-62
2022/11/04 04:52:38;;;;;;;3.25;1.20;;;10.10;99.90;;;;;;5090333;28;20054;-62
2022/11/04 04:55:04;;;;;;;3.17;1.25;;;10.10;99.90;;;;;;5090849;28;20130;-62
2022/11/04 04:57:30;;;;;;;1.45;0.98;;;10.10;99.90;;;;;;5090568;28;20075;-62
2022/11/04 04:59:55;;;;;;;3.78;1.20;;;10.10;99.90;;;;;;5090017;28;20083;-63
2022/11/04 05:02:21;;;;;;;3.60;1.50;;;10.10;99.90;;;;;;5090110;28;20040;-61
2022/11/04 05:04:46;;;;;;;5.43;1.70;;;10.10;99.90;;;;;;5090542;28;20048;-62
2022/11/04 05:07:12;;;;;;;7.55;1.73;;;10.20;99.90;;;;;;5090668;28;20078;-62
2022/11/04 05:09:38;;;;;;;4.70;1.30;;;10.20;99.90;;;;;;5090247;28;20036;-63
2022/11/04 05:12:03;;;;;;;4.40;1.35;;;10.10;99.90;;;;;;5090051;28;20040;-62
2022/11/04 05:14:29;;;;;;;3.75;1.35;;;10.20;99.90;;;;;;5090331;28;20373;-63
2022/11/04 05:16:55;;;;;;;4.03;1.58;;;10.20;99.90;;;;;;5090359;28;20449;-62
2022/11/04 05:19:20;;;;;;;4.90;1.50;;;10.20;99.90;;;;;;5090105;28;20051;-63
2022/11/04 05:21:46;;;;;;;4.03;1.30;;;10.20;99.90;;;;;;5089761;28;20039;-62
2022/11/04 05:24:11;;;;;;;3.40;1.10;;;10.10;99.90;;;;;;5089765;28;20142;-62
2022/11/04 05:26:37;;;;;;;2.50;1.00;;;10.10;99.90;;;;;;5090264;28;20468;-62
2022/11/04 05:29:03;;;;;;;4.85;1.17;;;10.10;99.90;;;;;;5089972;28;20036;-61
2022/11/04 05:31:29;;;;;;;1.55;0.80;;;10.00;99.90;;;;;;5089777;28;20032;-63
2022/11/04 05:33:55;;;;;;;2.95;1.00;;;10.00;99.90;;;;;;5089842;28;20559;-63
2022/11/04 05:36:21;;;;;;;1.70;0.95;;;10.00;99.90;;;;;;5090096;28;20112;-63
2022/11/04 05:38:51;;;;;;;2.90;1.08;;;10.00;99.90;;;;;;5089450;28;20429;-62
2022/11/04 05:41:26;;;;;;;1.95;0.80;;;10.00;99.90;;;;;;5085179;28;20093;-62
2022/11/04 05:44:00;;;;;;;1.80;0.70;;;9.90;99.90;;;;;;5089901;28;20040;-62
2022/11/04 05:46:26;;;;;;;1.55;0.50;;;9.90;99.90;;;;;;5089761;28;20043;-63
2022/11/04 05:48:52;;;;;;;1.00;0.30;;;9.80;99.90;;;;;;5089575;28;20048;-63
2022/11/04 05:51:20;;;;;;;1.52;0.40;;;9.70;99.90;;;;;;5089387;28;20040;-62
2022/11/04 05:53:46;;;;;;;2.50;0.60;;;9.70;99.90;;;;;;5089738;28;20044;-63
2022/11/04 05:56:12;;;;;;;1.50;0.50;;;9.60;99.90;;;;;;5089500;28;20032;-63
2022/11/04 05:58:37;;;;;;;1.15;0.43;;;9.60;99.90;;;;;;5088843;28;20421;-62
2022/11/04 06:01:31;;;;;;;0.47;0.40;;;9.60;99.90;;;;;;5087647;28;20064;-63
2022/11/04 06:03:58;;;;;;;0.88;0.50;;;9.50;99.90;;;;;;5087275;28;20123;-63
2022/11/04 06:06:25;;;;;;;0.80;0.50;;;9.50;99.90;;;;;;5088633;28;20043;-64
2022/11/04 06:08:51;;;;;;;1.02;0.47;;;9.40;99.90;;;;;;5088196;28;20047;-62
2022/11/04 06:11:18;;;;;;;1.52;0.40;;;9.30;99.90;;;;;;5088347;28;20024;-62
2022/11/04 06:13:43;;;;;;;0.68;0.30;;;9.30;99.90;;;;;;5087964;28;20044;-63
2022/11/04 06:16:09;;;;;;;1.85;0.55;;;9.30;99.90;;;;;;5089115;28;20036;-63
2022/11/04 06:18:34;;;;;;;1.38;0.35;;;9.20;99.90;;;;;;5089637;28;20094;-63
2022/11/04 06:21:06;;;;;;;2.35;0.50;;;9.20;99.90;;;;;;5088650;28;20036;-64
2022/11/04 06:23:32;;;;;;;1.50;0.55;;;9.20;99.90;;;;;;5088291;28;20036;-63
2022/11/04 06:25:57;;;;;;;1.23;0.65;;;9.20;99.90;;;;;;5088964;28;20361;-63
2022/11/04 06:28:23;;;;;;;1.92;0.93;;;9.20;99.90;;;;;;5089607;28;20124;-63
2022/11/04 06:30:48;;;;;;;1.73;0.82;;;9.20;99.90;;;;;;5088810;28;20043;-64
2022/11/04 06:33:14;;;;;;;1.33;0.90;;;9.20;99.90;;;;;;5089075;28;20032;-63
2022/11/04 06:35:40;;;;;;;2.65;1.10;;;9.20;99.90;;;;;;5088552;28;20123;-63
2022/11/04 06:38:05;;;;;;;2.78;1.10;;;9.30;99.90;;;;;;5089278;28;20151;-63
2022/11/04 06:40:31;;;;;;;3.78;1.30;;;9.20;99.90;;;;;;5089232;28;20044;-63
2022/11/04 06:42:56;;;;;;;3.97;1.30;;;9.20;99.90;;;;;;5088749;28;20039;-63
2022/11/04 06:45:22;;;;;;;3.92;1.50;;;9.20;99.90;;;;;;5088338;28;20086;-63
2022/11/04 06:47:47;;;;;;;2.95;1.27;;;9.20;99.90;;;;;;5087803;28;20043;-63
2022/11/04 06:50:13;;;;;;;3.00;1.38;;;9.20;99.90;;;;;;5087684;28;20040;-64
2022/11/04 06:52:39;;;;;;;2.60;1.50;;;9.20;99.90;;;;;;5087738;28;20093;-65
2022/11/04 06:55:06;;;;;;;3.15;1.42;;;9.20;99.90;;;;;;5087681;28;20039;-63
2022/11/04 06:57:31;;;;;;;2.15;1.55;;;9.20;99.90;;;;;;5088851;28;20047;-65
2022/11/04 06:59:57;;;;;;;5.15;2.20;;;9.30;99.90;;;;;;5085992;28;20044;-63
2022/11/04 07:02:22;;;;;;;3.63;2.20;;;9.20;99.90;;;;;;5088614;28;20044;-63
2022/11/04 07:04:48;;;;;;;5.22;2.70;;;9.30;99.90;;;;;;5091628;28;20048;-63
2022/11/04 07:07:13;;;;;;;5.63;2.90;;;9.30;99.90;;;;;;5092314;28;20055;-65
2022/11/04 07:09:39;;;;;;;5.43;3.13;;;9.30;99.90;;;;;;5089739;28;20154;-63
2022/11/04 07:12:05;;;;;;;6.45;3.47;;;9.30;99.90;;;;;;5089221;28;20409;-64
2022/11/04 07:14:31;;;;;;;6.57;3.78;;;9.40;99.90;;;;;;5090453;28;20105;-66
2022/11/04 07:16:56;;;;;;;6.50;3.75;;;9.40;99.90;;;;;;5091131;28;20051;-64
2022/11/04 07:19:22;;;;;;;7.00;4.15;;;9.50;99.90;;;;;;5072763;28;20413;-66
2022/11/04 07:21:48;;;;;;;8.95;4.68;;;9.50;99.90;;;;;;5091375;28;20506;-64
2022/11/04 07:24:13;;;;;;;9.80;5.70;;;9.50;99.90;;;;;;5091120;28;20321;-64
2022/11/04 07:26:41;;;;;;;8.70;4.90;;;9.50;99.90;;;;;;5091158;28;20044;-63
2022/11/04 07:29:09;;;;;;;26.30;8.30;;;9.60;99.90;;;;;;5090596;28;20071;-62
2022/11/04 07:31:38;;;;;;;12.63;5.38;;;9.60;99.90;;;;;;5090284;28;20040;-63
2022/11/04 07:34:04;;;;;;;7.32;5.13;;;9.60;99.90;;;;;;5090258;28;20441;-65
2022/11/04 07:36:30;;;;;;;7.60;4.70;;;9.60;99.90;;;;;;5056974;28;20075;-65
2022/11/04 07:38:56;;;;;;;8.18;5.13;;;9.70;99.90;;;;;;5090427;28;20028;-65
2022/11/04 07:41:21;;;;;;;6.45;4.93;;;9.70;99.90;;;;;;5089108;28;20388;-64
2022/11/04 07:43:51;;;;;;;14.32;6.70;;;9.70;99.90;;;;;;5090920;28;20040;-64
2022/11/04 07:46:18;;;;;;;9.02;6.47;;;9.70;99.90;;;;;;5089947;28;20427;-64
2022/11/04 07:48:44;;;;;;;8.43;6.63;;;9.80;99.90;;;;;;5091247;28;20453;-64
2022/11/04 07:51:15;;;;;;;10.98;6.63;;;9.80;99.90;;;;;;5091792;28;20051;-65
2022/11/04 07:53:41;;;;;;;9.20;7.00;;;9.90;99.90;;;;;;5091599;28;20356;-64
2022/11/04 07:56:10;;;;;;;14.10;7.53;;;9.90;99.90;;;;;;5091411;28;20042;-64
2022/11/04 07:58:36;;;;;;;10.90;7.50;;;9.90;99.90;;;;;;5090235;28;20043;-64
2022/11/04 08:01:05;;;;;;;10.32;7.40;;;9.90;99.90;;;;;;5090666;28;20074;-64
2022/11/04 08:03:32;;;;;;;10.27;8.20;;;9.90;99.90;;;;;;5090579;28;20040;-64
2022/11/04 08:06:00;;;;;;;13.15;8.93;;;9.90;99.90;;;;;;5091050;28;20397;-64
2022/11/04 08:08:26;;;;;;;13.10;9.07;;;9.90;99.90;;;;;;5090179;28;20111;-64
2022/11/04 08:11:03;;;;;;;12.57;8.98;;;9.90;99.90;;;;;;5090548;28;20036;-64
2022/11/04 08:13:30;;;;;;;14.82;10.82;;;9.90;99.90;;;;;;5089586;28;20122;-64
2022/11/04 08:15:59;;;;;;;16.52;11.43;;;9.80;99.90;;;;;;5091384;28;20125;-63
2022/11/04 08:18:25;;;;;;;14.43;11.73;;;9.70;99.90;;;;;;5090966;28;20708;-63
2022/11/04 08:20:52;;;;;;;17.70;12.15;;;9.70;99.90;;;;;;5091154;28;20032;-64
2022/11/04 08:23:19;;;;;;;20.58;12.05;;;9.60;99.90;;;;;;5090722;28;20113;-64
2022/11/04 08:25:45;;;;;;;19.00;13.15;;;9.60;99.90;;;;;;5090794;28;20102;-64
2022/11/04 08:28:16;;;;;;;23.05;14.07;;;9.70;99.90;;;;;;5065138;28;20051;-64
2022/11/04 08:30:56;;;;;;;18.23;14.13;;;9.70;99.90;;;;;;5085694;28;20349;-64
2022/11/04 08:33:27;;;;;;;19.52;13.68;;;9.70;99.90;;;;;;5089159;28;20043;-63
2022/11/04 08:35:54;;;;;;;21.88;14.80;;;9.80;99.90;;;;;;5090228;28;20073;-64
2022/11/04 08:38:20;;;;;;;22.02;14.55;;;9.80;99.90;;;;;;5088768;28;20096;-64
2022/11/04 08:40:46;;;;;;;16.30;12.98;;;9.80;99.90;;;;;;5090319;28;20032;-64
2022/11/04 08:43:12;;;;;;;18.65;14.15;;;9.80;99.90;;;;;;5089874;28;20070;-65
2022/11/04 08:45:42;;;;;;;19.27;14.57;;;9.90;99.90;;;;;;5088273;28;20370;-65
2022/11/04 08:48:08;;;;;;;20.10;15.20;;;9.90;99.90;;;;;;5090336;28;20032;-65
2022/11/04 08:50:34;;;;;;;22.38;15.52;;;10.00;99.90;;;;;;5090304;28;20104;-64
2022/11/04 08:53:00;;;;;;;18.42;14.80;;;10.00;99.90;;;;;;5090580;28;20119;-62
2022/11/04 08:55:28;;;;;;;21.60;15.85;;;10.10;99.90;;;;;;5090339;28;20035;-62
2022/11/04 08:57:54;;;;;;;20.13;15.70;;;10.10;99.90;;;;;;5088753;28;20036;-64
2022/11/04 09:00:20;;;;;;;21.35;16.33;;;10.10;99.90;;;;;;5088785;28;20051;-63
2022/11/04 09:02:45;;;;;;;19.90;15.82;;;10.10;99.90;;;;;;5088943;28;20134;-63
2022/11/04 09:05:13;;;;;;;22.40;16.40;;;10.20;99.90;;;;;;5090081;28;20118;-63
2022/11/04 09:07:40;;;;;;;21.58;16.98;;;10.30;99.90;;;;;;5089179;28;20435;-64
2022/11/04 09:10:06;;;;;;;21.98;17.58;;;10.30;99.90;;;;;;5089787;28;20123;-64
2022/11/04 09:12:32;;;;;;;21.90;17.42;;;10.40;99.90;;;;;;5090529;28;20036;-63
2022/11/04 09:14:57;;;;;;;24.67;18.08;;;10.40;99.90;;;;;;5090081;28;20082;-63
2022/11/04 09:17:24;;;;;;;20.45;17.70;;;10.40;99.90;;;;;;5089907;28;20048;-65
2022/11/04 09:19:50;;;;;;;23.10;17.60;;;10.40;99.90;;;;;;5088173;28;20246;-64
2022/11/04 09:22:15;;;;;;;25.38;18.67;;;10.50;99.90;;;;;;5090125;28;20123;-63
2022/11/04 09:24:41;;;;;;;22.60;18.35;;;10.50;99.90;;;;;;5087934;28;20059;-64
2022/11/04 09:27:06;;;;;;;22.50;18.33;;;10.60;99.90;;;;;;5089061;28;20077;-63
2022/11/04 09:29:32;;;;;;;22.30;17.73;;;10.70;99.90;;;;;;5088655;28;20028;-64
2022/11/04 09:32:00;;;;;;;22.80;17.73;;;10.70;99.90;;;;;;5088909;28;20048;-63
2022/11/04 09:34:26;;;;;;;22.38;17.90;;;10.70;99.90;;;;;;5088536;28;20058;-63
2022/11/04 09:36:55;;;;;;;19.83;17.65;;;10.70;99.90;;;;;;5089884;28;20039;-63
2022/11/04 09:39:20;;;;;;;22.67;18.30;;;10.70;99.90;;;;;;5077719;28;20083;-63
2022/11/04 09:41:54;;;;;;;23.33;18.60;;;10.80;99.90;;;;;;5089612;28;20079;-63
2022/11/04 09:44:50;;;;;;;24.80;20.70;;;10.90;99.90;;;;;;5088412;28;20044;-63
2022/11/04 09:47:25;;;;;;;24.83;19.55;;;11.00;99.90;;;;;;5079924;28;20139;-64
2022/11/04 09:49:56;;;;;;;25.15;19.27;;;11.10;99.90;;;;;;5089087;28;20050;-63
2022/11/04 09:52:30;;;;;;;25.50;19.88;;;11.20;99.90;;;;;;5088136;28;20177;-63
2022/11/04 09:54:57;;;;;;;22.42;19.35;;;11.30;99.90;;;;;;5089719;28;20058;-64
2022/11/04 09:57:23;;;;;;;21.95;18.35;;;11.30;99.90;;;;;;5088498;28;20117;-63
2022/11/04 09:59:48;;;;;;;23.73;18.75;;;11.30;99.90;;;;;;5087741;28;20132;-63
2022/11/04 10:03:05;;;;;;;24.17;20.13;;;11.30;99.90;;;;;;5089550;28;20437;-64
2022/11/04 10:05:37;;;;;;;28.48;19.58;;;11.20;99.90;;;;;;5080035;28;20055;-64
2022/11/04 10:08:53;;;;;;;21.52;18.92;;;11.20;99.90;;;;;;5088293;28;20055;-64
2022/11/04 10:11:23;;;;;;;;;;;11.20;99.90;;;;;;5079935;28;20166;-64
2022/11/04 10:14:11;;;;;;;22.40;18.52;;;11.10;99.90;;;;;;5085002;28;19974;-63
2022/11/04 10:17:11;;;;;;;22.13;19.10;;;11.20;99.90;;;;;;5080911;28;20062;-63
2022/11/04 10:20:03;;;;;;;21.73;18.10;;;11.20;99.90;;;;;;5087391;28;20044;-64
2022/11/04 10:22:34;;;;;;;20.92;18.60;;;11.20;99.90;;;;;;5087872;28;20152;-64
2022/11/04 10:25:21;;;;;;;22.30;18.63;;;11.30;99.90;;;;;;5089487;28;20039;-64
2022/11/04 10:27:47;;;;;;;23.30;18.90;;;11.40;99.90;;;;;;5088284;28;20480;-63
2022/11/04 10:30:21;;;;;;;22.70;18.20;;;11.40;99.90;;;;;;5088878;28;20060;-63
2022/11/04 10:32:57;;;;;;;19.25;15.38;;;11.50;99.90;;;;;;5087752;28;20162;-63
2022/11/04 10:35:40;;;;;;;22.65;13.65;;;11.50;99.90;;;;;;5088728;28;20075;-63
2022/11/04 10:38:19;;;;;;;16.10;12.60;;;11.40;99.90;;;;;;5092244;28;20036;-63
2022/11/04 10:40:53;;;;;;;18.13;13.57;;;11.50;99.90;;;;;;5093000;28;20440;-63
2022/11/04 10:43:32;;;;;;;18.42;13.00;;;11.50;99.90;;;;;;5088373;28;20627;-64
2022/11/04 10:46:12;;;;;;;17.27;13.55;;;11.50;99.90;;;;;;5091666;28;20040;-64
2022/11/04 10:49:04;;;;;;;18.63;13.88;;;11.60;99.90;;;;;;5090745;28;20482;-63
2022/11/04 10:51:29;;;;;;;16.42;13.55;;;11.60;99.90;;;;;;5092527;28;20032;-63
2022/11/04 10:54:00;;;;;;;19.35;15.32;;;11.70;99.90;;;;;;5092610;28;20044;-64
2022/11/04 10:56:42;;;;;;;19.58;14.05;;;11.80;99.90;;;;;;5092131;28;20044;-62
2022/11/04 10:59:30;;;;;;;17.45;13.73;;;11.80;99.90;;;;;;5091555;28;20489;-63
2022/11/04 11:01:57;;;;;;;17.50;13.13;;;11.90;99.90;;;;;;5090615;28;20051;-63
2022/11/04 11:04:24;;;;;;;15.63;12.60;;;11.90;99.90;;;;;;5092140;28;20408;-64
2022/11/04 11:06:51;;;;;;;19.30;13.38;;;12.00;99.90;;;;;;5092208;28;20414;-64
2022/11/04 11:09:27;;;;;;;16.15;13.18;;;12.10;99.90;;;;;;5092364;28;20036;-65
2022/11/04 11:11:53;;;;;;;16.00;13.18;;;12.10;99.90;;;;;;5091638;28;20411;-63
2022/11/04 11:14:28;;;;;;;15.10;12.82;;;12.10;99.90;;;;;;5090297;28;20040;-64
2022/11/04 11:16:54;;;;;;;;;;;12.20;99.90;;;;;;5091690;28;20044;-65
2022/11/04 11:19:23;;;;;;;15.77;12.52;;;12.20;99.90;;;;;;5089742;28;20006;-64
2022/11/04 11:21:54;;;;;;;14.40;11.82;;;12.30;99.90;;;;;;5091879;28;20461;-64
2022/11/04 11:24:25;;;;;;;15.40;12.52;;;12.30;99.90;;;;;;5092078;28;20094;-64
2022/11/04 11:26:53;;;;;;;11.63;9.50;;;12.40;99.90;;;;;;5092407;28;20039;-63
2022/11/04 11:29:39;;;;;;;10.30;7.40;;;12.50;99.90;;;;;;5090447;28;20138;-64
2022/11/04 11:32:14;;;;;;;11.70;8.23;;;12.50;99.90;;;;;;5091887;28;20520;-63
2022/11/04 11:34:44;;;;;;;14.55;7.57;;;12.60;99.90;;;;;;5092106;28;20039;-64
2022/11/04 11:37:21;;;;;;;11.05;7.50;;;12.70;99.90;;;;;;5091065;28;20059;-63
2022/11/04 11:39:47;;;;;;;11.10;7.43;;;12.80;99.90;;;;;;5088182;28;20119;-63
2022/11/04 11:42:18;;;;;;;11.52;6.57;;;12.80;99.90;;;;;;5088409;28;20127;-63
2022/11/04 11:44:51;;;;;;;10.52;7.25;;;12.90;99.90;;;;;;5087666;28;20044;-63
2022/11/04 11:47:28;;;;;;;9.70;6.40;;;13.00;99.90;;;;;;5091848;28;20161;-63
2022/11/04 11:50:32;;;;;;;8.55;5.47;;;13.00;99.90;;;;;;5087343;28;20138;-64
2022/11/04 11:53:16;;;;;;;8.45;5.70;;;13.00;99.90;;;;;;5048516;28;20070;-63
2022/11/04 11:55:51;;;;;;;9.15;5.80;;;13.00;99.90;;;;;;5088652;28;20337;-63
2022/11/04 11:58:36;;;;;;;10.40;5.57;;;12.90;99.90;;;;;;5086548;28;20032;-64
2022/11/04 12:01:14;;;;;;;9.25;5.22;;;12.90;99.90;;;;;;5089820;28;20052;-63
2022/11/04 12:03:44;;;;;;;8.80;4.63;;;12.90;99.90;;;;;;5091601;28;20066;-64
2022/11/04 12:06:18;;;;;;;8.35;4.43;;;12.90;99.90;;;;;;5090309;28;20072;-64
2022/11/04 12:08:52;;;;;;;;;;;12.90;99.90;;;;;;5091777;28;20123;-63
2022/11/04 12:11:43;;;;;;;7.43;4.93;;;12.80;99.90;;;;;;5089662;28;19934;-63
2022/11/04 12:14:54;;;;;;;8.48;4.20;;;12.80;99.90;;;;;;5081965;28;20044;-63
2022/11/04 12:17:41;;;;;;;9.50;4.22;;;12.80;99.90;;;;;;5088979;28;20663;-64
2022/11/04 12:20:35;;;;;;;7.95;2.88;;;12.70;99.90;;;;;;5084434;28;20089;-65
2022/11/04 12:23:30;;;;;;;9.75;3.17;;;12.60;99.90;;;;;;5084869;28;20089;-64
2022/11/04 12:26:01;;;;;;;;;;;12.60;99.90;;;;;;5090861;28;20036;-63
2022/11/04 12:28:55;;;;;;;8.30;3.60;;;12.60;99.90;;;;;;5089912;28;20375;-64
2022/11/04 12:31:45;;;;;;;8.93;3.38;;;12.60;99.90;;;;;;5088081;28;20051;-64
2022/11/04 12:34:47;;;;;;;7.18;2.97;;;12.70;99.90;;;;;;5089278;28;20325;-64
2022/11/04 12:37:51;;;;;;;5.03;2.47;;;12.70;99.90;;;;;;5087540;28;20530;-64
2022/11/04 12:40:45;;;;;;;7.65;2.97;;;12.70;99.90;;;;;;5080097;28;20040;-64
2022/11/04 12:43:32;;;;;;;7.18;3.08;;;12.70;99.90;;;;;;5082528;28;20375;-65
2022/11/04 12:46:16;;;;;;;9.15;3.00;;;12.70;99.90;;;;;;5090678;28;20651;-63
2022/11/04 12:49:00;;;;;;;6.40;2.70;;;12.70;99.90;;;;;;5075696;28;20044;-63
2022/11/04 12:51:45;;;;;;;5.88;2.10;;;12.70;99.90;;;;;;5088187;28;20053;-63
2022/11/04 12:54:31;;;;;;;6.20;2.10;;;12.70;99.90;;;;;;5090253;28;20353;-64
2022/11/04 12:57:25;;;;;;;11.25;2.20;;;12.80;99.90;;;;;;5089263;28;20104;-63
2022/11/04 13:00:23;;;;;;;5.90;1.50;;;12.80;99.90;;;;;;5081527;28;20062;-63
2022/11/04 13:02:53;;;;;;;8.23;1.90;;;12.90;99.90;;;;;;5088335;28;20077;-64
2022/11/04 13:05:35;;;;;;;7.38;1.90;;;12.90;99.90;;;;;;5088716;28;20375;-61
2022/11/04 13:08:23;;;;;;;4.78;1.42;;;12.80;99.90;;;;;;5089502;28;20449;-63
2022/11/04 13:10:58;;;;;;;7.45;1.85;;;12.80;99.90;;;;;;5083250;28;20055;-63
2022/11/04 13:13:30;;;;;;;4.65;1.70;;;12.80;99.90;;;;;;5090172;28;20044;-64
2022/11/04 13:16:03;;;;;;;7.07;1.98;;;12.80;99.90;;;;;;5090424;28;20046;-64
2022/11/04 13:18:33;;;;;;;7.43;1.85;;;12.80;99.90;;;;;;5089638;28;20047;-63
2022/11/04 13:21:17;;;;;;;8.77;1.85;;;12.80;99.90;;;;;;5087720;28;20349;-63
2022/11/04 13:24:03;;;;;;;6.90;1.65;;;12.70;99.90;;;;;;5088054;28;20771;-63
2022/11/04 13:26:29;;;;;;;6.03;1.35;;;12.60;99.90;;;;;;5089401;28;20085;-64
2022/11/04 13:29:20;;;;;;;8.18;1.55;;;12.60;99.90;;;;;;5088987;28;20066;-64
2022/11/04 13:32:06;;;;;;;4.93;1.30;;;12.60;99.90;;;;;;5089067;28;20111;-64
2022/11/04 13:35:03;;;;;;;5.80;1.50;;;12.50;99.90;;;;;;5089313;28;20040;-64
2022/11/04 13:37:58;;;;;;;5.68;1.50;;;12.50;99.90;;;;;;5089376;28;20118;-64
2022/11/04 13:40:51;;;;;;;4.72;1.58;;;12.50;99.90;;;;;;5088247;28;20422;-65
2022/11/04 13:43:36;;;;;;;4.60;1.35;;;12.50;99.90;;;;;;5089260;28;20457;-63
2022/11/04 13:46:14;;;;;;;6.55;1.85;;;12.50;99.90;;;;;;5089262;28;20107;-63
2022/11/04 13:48:51;;;;;;;5.47;1.98;;;12.40;99.90;;;;;;5088305;28;20044;-63